Time,TemperatureF,DewpointF,PressureIn,WindDirection,WindDirectionDegrees,WindSpeedMPH,WindSpeedGustMPH,Humidity,HourlyPrecipIn,Conditions,Clouds,dailyrainin,SoftwareType,DateUTC
2013-05-21 00:04:00,67.4,65.0,29.96,South,171,0.0,0.0,92,0.00,,,0.00,Wunderground v.1.15,2013-05-21 04:04:00,
2013-05-21 00:09:00,67.2,64.8,29.96,South,171,0.0,0.0,92,0.00,,,0.00,Wunderground v.1.15,2013-05-21 04:09:00,
2013-05-21 00:14:00,67.0,64.6,29.96,South,171,0.0,0.0,92,0.00,,,0.00,Wunderground v.1.15,2013-05-21 04:14:00,
2013-05-21 00:19:00,66.8,64.7,29.95,South,171,0.0,0.0,93,0.00,,,0.00,Wunderground v.1.15,2013-05-21 04:19:00,
2013-05-21 00:24:00,66.5,64.4,29.95,South,171,0.0,0.0,93,0.00,,,0.00,Wunderground v.1.15,2013-05-21 04:24:00,
2013-05-21 00:29:00,66.4,64.3,29.95,South,171,0.0,0.0,93,0.00,,,0.00,Wunderground v.1.15,2013-05-21 04:29:00,
2013-05-21 00:34:00,66.2,64.1,29.95,South,171,0.0,0.0,93,0.00,,,0.00,Wunderground v.1.15,2013-05-21 04:34:00,
2013-05-21 00:39:00,66.1,64.3,29.95,South,171,0.0,0.0,94,0.00,,,0.00,Wunderground v.1.15,2013-05-21 04:39:00,
2013-05-21 00:49:00,65.8,64.0,29.95,South,171,0.0,0.0,94,0.00,,,0.00,Wunderground v.1.15,2013-05-21 04:49:00,
2013-05-21 00:54:00,65.6,63.8,29.95,South,172,0.0,0.0,94,0.00,,,0.00,Wunderground v.1.15,2013-05-21 04:54:00,
2013-05-21 01:05:00,65.4,63.9,29.95,South,171,0.0,0.0,95,0.00,,,0.00,Wunderground v.1.15,2013-05-21 05:05:00,
2013-05-21 01:14:00,65.3,64.1,29.95,South,171,0.0,0.0,96,0.00,,,0.00,Wunderground v.1.15,2013-05-21 05:14:00,
2013-05-21 01:24:00,65.4,64.2,29.95,South,171,0.0,0.0,96,0.00,,,0.00,Wunderground v.1.15,2013-05-21 05:24:00,
2013-05-21 01:34:00,65.4,64.2,29.95,South,171,0.0,0.0,96,0.00,,,0.00,Wunderground v.1.15,2013-05-21 05:34:00,
2013-05-21 01:39:00,65.4,64.2,29.95,South,171,0.0,0.0,96,0.00,,,0.00,Wunderground v.1.15,2013-05-21 05:39:00,
2013-05-21 01:49:00,65.5,64.6,29.95,South,171,0.0,0.0,97,0.00,,,0.00,Wunderground v.1.15,2013-05-21 05:49:00,
2013-05-21 01:54:00,65.6,64.7,29.95,South,171,0.0,0.0,97,0.00,,,0.00,Wunderground v.1.15,2013-05-21 05:54:00,
2013-05-21 02:05:00,65.6,64.7,29.95,South,171,0.0,0.0,97,0.00,,,0.00,Wunderground v.1.15,2013-05-21 06:05:00,
2013-05-21 02:14:00,65.7,64.8,29.94,South,171,0.0,0.0,97,0.00,,,0.00,Wunderground v.1.15,2013-05-21 06:14:00,
2013-05-21 02:24:00,65.7,64.8,29.94,South,171,0.0,0.0,97,0.00,,,0.00,Wunderground v.1.15,2013-05-21 06:24:00,
2013-05-21 02:29:00,65.7,64.8,29.94,South,171,0.0,0.0,97,0.00,,,0.00,Wunderground v.1.15,2013-05-21 06:29:00,
2013-05-21 02:39:00,65.6,64.7,29.94,South,171,0.0,0.0,97,0.00,,,0.00,Wunderground v.1.15,2013-05-21 06:39:00,
2013-05-21 02:44:00,65.4,64.2,29.94,South,171,0.0,0.0,96,0.00,,,0.00,Wunderground v.1.15,2013-05-21 06:44:00,
2013-05-21 02:54:00,65.2,64.0,29.94,South,171,0.0,0.0,96,0.00,,,0.00,Wunderground v.1.15,2013-05-21 06:54:00,
2013-05-21 02:59:00,65.1,63.9,29.94,South,171,0.0,0.0,96,0.00,,,0.00,Wunderground v.1.15,2013-05-21 06:59:00,
2013-05-21 03:05:00,65.0,63.8,29.94,South,171,0.0,0.0,96,0.00,,,0.00,Wunderground v.1.15,2013-05-21 07:05:00,
2013-05-21 03:14:00,65.0,64.1,29.93,South,171,0.0,0.0,97,0.00,,,0.00,Wunderground v.1.15,2013-05-21 07:14:00,
2013-05-21 03:19:00,65.0,64.1,29.93,South,171,0.0,0.0,97,0.00,,,0.00,Wunderground v.1.15,2013-05-21 07:19:00,
2013-05-21 03:29:00,65.0,64.1,29.93,South,171,0.0,0.0,97,0.00,,,0.00,Wunderground v.1.15,2013-05-21 07:29:00,
2013-05-21 03:34:00,64.9,64.0,29.93,South,171,0.0,0.0,97,0.00,,,0.00,Wunderground v.1.15,2013-05-21 07:34:00,
2013-05-21 03:44:00,64.9,64.0,29.92,South,171,0.0,0.0,97,0.00,,,0.00,Wunderground v.1.15,2013-05-21 07:44:00,
2013-05-21 03:54:00,64.9,64.0,29.93,South,171,0.0,0.0,97,0.00,,,0.00,Wunderground v.1.15,2013-05-21 07:54:00,
2013-05-21 03:59:00,64.9,64.0,29.93,South,171,0.0,0.0,97,0.00,,,0.00,Wunderground v.1.15,2013-05-21 07:59:00,
2013-05-21 04:04:00,64.9,64.0,29.93,South,171,0.0,0.0,97,0.00,,,0.00,Wunderground v.1.15,2013-05-21 08:04:00,
2013-05-21 04:14:00,64.9,64.0,29.94,South,171,0.0,0.0,97,0.00,,,0.00,Wunderground v.1.15,2013-05-21 08:14:00,
2013-05-21 04:19:00,64.9,64.0,29.94,South,171,0.0,0.0,97,0.00,,,0.00,Wunderground v.1.15,2013-05-21 08:19:00,
2013-05-21 04:24:00,64.9,64.0,29.94,South,171,0.0,0.0,97,0.00,,,0.00,Wunderground v.1.15,2013-05-21 08:24:00,
2013-05-21 04:34:00,65.2,64.3,29.94,South,172,0.0,0.0,97,0.00,,,0.00,Wunderground v.1.15,2013-05-21 08:34:00,
2013-05-21 04:44:00,65.5,64.9,29.93,South,171,0.0,0.0,98,0.00,,,0.00,Wunderground v.1.15,2013-05-21 08:44:00,
2013-05-21 04:49:00,65.6,65.0,29.94,South,171,0.0,0.0,98,0.00,,,0.00,Wunderground v.1.15,2013-05-21 08:49:00,
2013-05-21 04:59:00,65.8,65.2,29.94,South,172,0.0,0.0,98,0.00,,,0.00,Wunderground v.1.15,2013-05-21 08:59:00,
2013-05-21 05:05:00,65.8,65.2,29.94,South,171,0.0,0.0,98,0.00,,,0.00,Wunderground v.1.15,2013-05-21 09:05:00,
2013-05-21 05:14:00,65.9,65.3,29.94,South,172,0.0,0.0,98,0.00,,,0.00,Wunderground v.1.15,2013-05-21 09:14:00,
2013-05-21 05:19:00,65.9,65.3,29.94,South,171,0.0,0.0,98,0.00,,,0.00,Wunderground v.1.15,2013-05-21 09:19:00,
2013-05-21 05:24:00,65.9,65.3,29.94,South,171,0.0,0.0,98,0.00,,,0.00,Wunderground v.1.15,2013-05-21 09:24:00,
2013-05-21 05:34:00,65.9,65.3,29.95,South,171,0.0,0.0,98,0.00,,,0.00,Wunderground v.1.15,2013-05-21 09:34:00,
2013-05-21 05:39:00,65.9,65.3,29.95,South,172,0.0,0.0,98,0.00,,,0.00,Wunderground v.1.15,2013-05-21 09:39:00,
2013-05-21 05:49:00,65.9,65.3,29.95,South,171,0.0,0.0,98,0.00,,,0.00,Wunderground v.1.15,2013-05-21 09:49:00,
2013-05-21 05:54:00,65.9,65.3,29.95,South,171,0.0,0.0,98,0.00,,,0.00,Wunderground v.1.15,2013-05-21 09:54:00,
2013-05-21 06:05:00,65.9,65.3,29.95,South,171,0.0,0.0,98,0.00,,,0.00,Wunderground v.1.15,2013-05-21 10:05:00,
2013-05-21 06:14:00,65.8,65.2,29.94,South,171,0.0,1.0,98,0.00,,,0.00,Wunderground v.1.15,2013-05-21 10:14:00,
2013-05-21 06:24:00,65.8,65.2,29.95,South,171,0.0,0.0,98,0.00,,,0.00,Wunderground v.1.15,2013-05-21 10:24:00,
2013-05-21 06:29:00,65.8,65.2,29.96,South,171,0.0,0.0,98,0.00,,,0.00,Wunderground v.1.15,2013-05-21 10:29:00,
2013-05-21 06:39:00,65.8,65.2,29.96,South,171,0.0,0.0,98,0.00,,,0.00,Wunderground v.1.15,2013-05-21 10:39:00,
2013-05-21 06:49:00,65.9,65.3,29.96,South,172,0.0,0.0,98,0.00,,,0.00,Wunderground v.1.15,2013-05-21 10:49:00,
2013-05-21 06:54:00,65.9,65.3,29.95,South,171,0.0,0.0,98,0.00,,,0.00,Wunderground v.1.15,2013-05-21 10:54:00,
2013-05-21 07:05:00,65.9,65.3,29.95,South,171,0.0,0.0,98,0.00,,,0.00,Wunderground v.1.15,2013-05-21 11:05:00,
2013-05-21 07:14:00,66.0,65.7,29.95,South,172,0.0,0.0,99,0.00,,,0.00,Wunderground v.1.15,2013-05-21 11:14:00,
2013-05-21 07:24:00,66.1,65.8,29.96,South,171,0.0,0.0,99,0.00,,,0.00,Wunderground v.1.15,2013-05-21 11:24:00,
2013-05-21 07:29:00,66.1,65.5,29.96,South,171,0.0,0.0,98,0.00,,,0.00,Wunderground v.1.15,2013-05-21 11:29:00,
2013-05-21 07:39:00,66.2,65.6,29.95,South,171,0.0,0.0,98,0.00,,,0.00,Wunderground v.1.15,2013-05-21 11:39:00,
2013-05-21 07:44:00,66.2,65.6,29.96,South,171,0.0,0.0,98,0.00,,,0.00,Wunderground v.1.15,2013-05-21 11:44:00,
2013-05-21 07:54:00,66.4,65.8,29.96,South,172,0.0,0.0,98,0.00,,,0.00,Wunderground v.1.15,2013-05-21 11:54:00,
2013-05-21 08:05:00,66.6,66.0,29.96,South,172,0.0,0.0,98,0.00,,,0.00,Wunderground v.1.15,2013-05-21 12:05:00,
2013-05-21 08:14:00,66.7,66.1,29.97,South,171,0.0,0.0,98,0.00,,,0.00,Wunderground v.1.15,2013-05-21 12:14:00,
2013-05-21 08:19:00,66.8,66.2,29.97,South,171,0.0,0.0,98,0.00,,,0.00,Wunderground v.1.15,2013-05-21 12:19:00,
2013-05-21 08:29:00,67.2,66.3,29.97,South,171,0.0,0.0,97,0.00,,,0.00,Wunderground v.1.15,2013-05-21 12:29:00,
2013-05-21 08:34:00,67.2,66.3,29.96,South,171,0.0,0.0,97,0.00,,,0.00,Wunderground v.1.15,2013-05-21 12:34:00,
2013-05-21 08:44:00,67.6,66.7,29.96,South,172,0.0,0.0,97,0.00,,,0.00,Wunderground v.1.15,2013-05-21 12:44:00,
2013-05-21 08:49:00,67.8,66.9,29.97,South,172,0.0,0.0,97,0.00,,,0.00,Wunderground v.1.15,2013-05-21 12:49:00,
2013-05-21 08:59:00,68.0,66.8,29.97,South,171,0.0,0.0,96,0.00,,,0.00,Wunderground v.1.15,2013-05-21 12:59:00,
2013-05-21 09:05:00,68.1,66.9,29.97,South,171,0.0,0.0,96,0.00,,,0.00,Wunderground v.1.15,2013-05-21 13:05:00,
2013-05-21 09:14:00,68.2,66.7,29.96,South,179,1.0,1.0,95,0.00,,,0.00,Wunderground v.1.15,2013-05-21 13:14:00,
2013-05-21 09:19:00,68.4,66.9,29.96,South,179,0.0,0.0,95,0.00,,,0.00,Wunderground v.1.15,2013-05-21 13:19:00,
2013-05-21 09:29:00,68.7,66.9,29.97,South,181,0.0,0.0,94,0.00,,,0.00,Wunderground v.1.15,2013-05-21 13:29:00,
2013-05-21 09:34:00,68.9,67.1,29.97,South,182,0.0,0.0,94,0.00,,,0.00,Wunderground v.1.15,2013-05-21 13:34:00,
2013-05-21 09:44:00,69.4,67.6,29.97,South,183,0.0,1.0,94,0.00,,,0.00,Wunderground v.1.15,2013-05-21 13:44:00,
2013-05-21 09:49:00,69.7,67.9,29.96,South,181,0.0,0.0,94,0.00,,,0.00,Wunderground v.1.15,2013-05-21 13:49:00,
2013-05-21 09:59:00,70.2,68.1,29.96,South,181,0.0,0.0,93,0.00,,,0.00,Wunderground v.1.15,2013-05-21 13:59:00,
2013-05-21 10:04:00,70.6,68.5,29.96,South,182,0.0,0.0,93,0.00,,,0.00,Wunderground v.1.15,2013-05-21 14:04:00,
2013-05-21 10:14:00,71.0,68.9,29.96,South,182,0.0,0.0,93,0.00,,,0.00,Wunderground v.1.15,2013-05-21 14:14:00,
2013-05-21 10:19:00,71.0,68.2,29.96,South,182,0.0,0.0,91,0.00,,,0.00,Wunderground v.1.15,2013-05-21 14:19:00,
2013-05-21 10:24:00,71.0,68.6,29.96,South,182,0.0,0.0,92,0.00,,,0.00,Wunderground v.1.15,2013-05-21 14:24:00,
2013-05-21 10:34:00,71.5,69.4,29.96,South,182,0.0,0.0,93,0.00,,,0.00,Wunderground v.1.15,2013-05-21 14:34:00,
2013-05-21 10:39:00,71.7,69.3,29.96,South,182,0.0,0.0,92,0.00,,,0.00,Wunderground v.1.15,2013-05-21 14:39:00,
2013-05-21 10:49:00,72.2,69.7,29.96,South,183,0.0,0.0,92,0.00,,,0.00,Wunderground v.1.15,2013-05-21 14:49:00,
2013-05-21 10:59:00,72.5,69.4,29.95,West,272,0.0,1.0,90,0.00,,,0.00,Wunderground v.1.15,2013-05-21 14:59:00,
2013-05-21 11:05:00,72.8,69.7,29.95,West,272,0.0,1.0,90,0.00,,,0.00,Wunderground v.1.15,2013-05-21 15:05:00,
2013-05-21 11:14:00,73.6,70.8,29.95,West,268,0.0,1.0,91,0.00,,,0.00,Wunderground v.1.15,2013-05-21 15:14:00,
2013-05-21 11:19:00,74.0,70.6,29.95,West,268,0.0,0.0,89,0.00,,,0.00,Wunderground v.1.15,2013-05-21 15:19:00,
2013-05-21 11:24:00,74.2,70.7,29.95,West,261,0.0,0.0,89,0.00,,,0.00,Wunderground v.1.15,2013-05-21 15:24:00,
2013-05-21 11:34:00,74.8,71.3,29.95,West,261,0.0,0.0,89,0.00,,,0.00,Wunderground v.1.15,2013-05-21 15:34:00,
2013-05-21 11:39:00,75.1,71.3,29.94,West,261,0.0,0.0,88,0.00,,,0.00,Wunderground v.1.15,2013-05-21 15:39:00,
2013-05-21 11:49:00,75.3,71.2,29.94,West,261,0.0,1.0,87,0.00,,,0.00,Wunderground v.1.15,2013-05-21 15:49:00,
2013-05-21 11:54:00,75.6,71.5,29.94,WSW,250,0.0,1.0,87,0.00,,,0.00,Wunderground v.1.15,2013-05-21 15:54:00,
2013-05-21 12:05:00,76.9,72.7,29.94,WSW,247,0.0,0.0,87,0.00,,,0.00,Wunderground v.1.15,2013-05-21 16:05:00,
2013-05-21 12:14:00,77.5,71.9,29.94,WSW,247,0.0,0.0,83,0.00,,,0.00,Wunderground v.1.15,2013-05-21 16:14:00,
2013-05-21 12:24:00,78.2,72.3,29.94,South,187,0.0,0.0,82,0.00,,,0.00,Wunderground v.1.15,2013-05-21 16:24:00,
2013-05-21 12:29:00,78.8,73.2,29.94,SSW,206,1.0,1.0,83,0.00,,,0.00,Wunderground v.1.15,2013-05-21 16:29:00,
2013-05-21 12:39:00,79.4,73.1,29.94,SSW,206,0.0,0.0,81,0.00,,,0.00,Wunderground v.1.15,2013-05-21 16:39:00,
2013-05-21 12:49:00,79.5,73.2,29.93,SSW,206,0.0,0.0,81,0.00,,,0.00,Wunderground v.1.15,2013-05-21 16:49:00,
2013-05-21 12:54:00,79.9,73.5,29.94,SSW,206,0.0,0.0,81,0.00,,,0.00,Wunderground v.1.15,2013-05-21 16:54:00,
2013-05-21 13:05:00,80.9,73.8,29.93,SSW,206,0.0,0.0,79,0.00,,,0.00,Wunderground v.1.15,2013-05-21 17:05:00,
2013-05-21 13:14:00,81.3,73.8,29.93,SSW,206,0.0,0.0,78,0.00,,,0.00,Wunderground v.1.15,2013-05-21 17:14:00,
2013-05-21 13:19:00,81.3,73.8,29.93,SSW,206,0.0,0.0,78,0.00,,,0.00,Wunderground v.1.15,2013-05-21 17:19:00,
2013-05-21 13:29:00,81.6,73.7,29.92,SSW,206,0.0,0.0,77,0.00,,,0.00,Wunderground v.1.15,2013-05-21 17:29:00,
2013-05-21 13:39:00,82.2,73.9,29.91,SSW,206,0.0,0.0,76,0.00,,,0.00,Wunderground v.1.15,2013-05-21 17:39:00,
2013-05-21 13:44:00,82.7,74.4,29.92,SSW,212,0.0,0.0,76,0.00,,,0.00,Wunderground v.1.15,2013-05-21 17:44:00,
2013-05-21 13:54:00,83.8,74.6,29.91,SSW,204,1.0,1.0,74,0.00,,,0.00,Wunderground v.1.15,2013-05-21 17:54:00,
2013-05-21 13:59:00,84.4,75.6,29.91,SSW,203,1.0,1.0,75,0.00,,,0.00,Wunderground v.1.15,2013-05-21 17:59:00,
2013-05-21 14:04:00,84.9,74.4,29.90,SW,234,0.0,1.0,71,0.00,,,0.00,Wunderground v.1.15,2013-05-21 18:04:00,
2013-05-21 14:14:00,85.5,75.0,29.90,SSW,212,0.0,2.0,71,0.00,,,0.00,Wunderground v.1.15,2013-05-21 18:14:00,
2013-05-21 14:19:00,85.3,75.7,29.90,SSW,212,0.0,1.0,73,0.00,,,0.00,Wunderground v.1.15,2013-05-21 18:19:00,
2013-05-21 14:29:00,85.0,73.7,29.90,SSW,212,0.0,0.0,69,0.00,,,0.00,Wunderground v.1.15,2013-05-21 18:29:00,
2013-05-21 14:34:00,84.8,74.3,29.90,SSW,211,0.0,0.0,71,0.00,,,0.00,Wunderground v.1.15,2013-05-21 18:34:00,
2013-05-21 14:44:00,84.9,73.6,29.90,SW,216,1.0,1.0,69,0.00,,,0.00,Wunderground v.1.15,2013-05-21 18:44:00,
2013-05-21 14:49:00,85.1,74.2,29.90,SW,216,0.0,0.0,70,0.00,,,0.00,Wunderground v.1.15,2013-05-21 18:49:00,
2013-05-21 14:59:00,85.7,75.2,29.89,SSW,212,0.0,2.0,71,0.00,,,0.00,Wunderground v.1.15,2013-05-21 18:59:00,
2013-05-21 15:04:00,86.1,75.6,29.89,SSW,204,0.0,2.0,71,0.00,,,0.00,Wunderground v.1.15,2013-05-21 19:04:00,
2013-05-21 15:14:00,86.0,74.6,29.89,SW,228,0.0,0.0,69,0.00,,,0.00,Wunderground v.1.15,2013-05-21 19:14:00,
2013-05-21 15:19:00,86.1,74.7,29.89,SW,228,0.0,0.0,69,0.00,,,0.00,Wunderground v.1.15,2013-05-21 19:19:00,
2013-05-21 15:24:00,86.4,75.0,29.89,SSE,159,1.0,2.0,69,0.00,,,0.00,Wunderground v.1.15,2013-05-21 19:24:00,
2013-05-21 15:34:00,85.8,74.4,29.89,East,90,0.0,1.0,69,0.00,,,0.00,Wunderground v.1.15,2013-05-21 19:34:00,
2013-05-21 15:44:00,86.0,74.6,29.88,SW,218,0.0,1.0,69,0.00,,,0.00,Wunderground v.1.15,2013-05-21 19:44:00,
2013-05-21 15:49:00,86.3,74.5,29.88,SW,214,0.0,2.0,68,0.00,,,0.00,Wunderground v.1.15,2013-05-21 19:49:00,
2013-05-21 15:59:00,87.1,75.7,29.88,South,179,1.0,1.0,69,0.00,,,0.00,Wunderground v.1.15,2013-05-21 19:59:00,
2013-05-21 16:05:00,87.1,75.7,29.87,South,178,0.0,1.0,69,0.00,,,0.00,Wunderground v.1.15,2013-05-21 20:05:00,
2013-05-21 16:14:00,87.1,75.3,29.87,SE,143,0.0,1.0,68,0.00,,,0.00,Wunderground v.1.15,2013-05-21 20:14:00,
2013-05-21 16:19:00,87.0,75.2,29.87,SSE,147,0.0,0.0,68,0.00,,,0.00,Wunderground v.1.15,2013-05-21 20:19:00,
2013-05-21 16:24:00,87.1,75.3,29.87,South,191,0.0,0.0,68,0.00,,,0.00,Wunderground v.1.15,2013-05-21 20:24:00,
2013-05-21 16:34:00,87.1,74.8,29.87,SSE,160,0.0,1.0,67,0.00,,,0.00,Wunderground v.1.15,2013-05-21 20:34:00,
2013-05-21 16:44:00,87.4,76.0,29.86,SSE,166,0.0,1.0,69,0.00,,,0.00,Wunderground v.1.15,2013-05-21 20:44:00,
2013-05-21 16:49:00,87.1,75.7,29.85,SSE,167,0.0,0.0,69,0.00,,,0.00,Wunderground v.1.15,2013-05-21 20:49:00,
2013-05-21 16:59:00,87.1,76.1,29.85,SSE,167,0.0,0.0,70,0.00,,,0.00,Wunderground v.1.15,2013-05-21 20:59:00,
2013-05-21 17:05:00,87.0,75.2,29.85,SSE,167,0.0,0.0,68,0.00,,,0.00,Wunderground v.1.15,2013-05-21 21:05:00,
2013-05-21 17:14:00,86.8,74.5,29.85,South,172,0.0,0.0,67,0.00,,,0.00,Wunderground v.1.15,2013-05-21 21:14:00,
2013-05-21 17:24:00,86.9,74.6,29.86,SSW,197,0.0,0.0,67,0.00,,,0.00,Wunderground v.1.15,2013-05-21 21:24:00,
2013-05-21 17:34:00,85.9,73.7,29.86,WNW,288,0.0,0.0,67,0.00,,,0.00,Wunderground v.1.15,2013-05-21 21:34:00,
2013-05-21 17:39:00,85.4,74.1,29.85,South,178,0.0,0.0,69,0.00,,,0.00,Wunderground v.1.15,2013-05-21 21:39:00,
2013-05-21 17:49:00,84.5,73.6,29.86,South,179,0.0,0.0,70,0.00,,,0.00,Wunderground v.1.15,2013-05-21 21:49:00,
2013-05-21 17:54:00,84.1,73.3,29.86,SSE,159,0.0,0.0,70,0.00,,,0.00,Wunderground v.1.15,2013-05-21 21:54:00,
2013-05-21 18:05:00,83.6,73.6,29.85,SSE,162,0.0,1.0,72,0.00,,,0.00,Wunderground v.1.15,2013-05-21 22:05:00,
2013-05-21 18:14:00,83.1,73.1,29.85,SSE,162,0.0,0.0,72,0.00,,,0.00,Wunderground v.1.15,2013-05-21 22:14:00,
2013-05-21 18:24:00,82.7,73.6,29.85,SSE,164,0.0,0.0,74,0.00,,,0.00,Wunderground v.1.15,2013-05-21 22:24:00,
2013-05-21 18:34:00,82.5,73.8,29.85,East,98,0.0,0.0,75,0.00,,,0.00,Wunderground v.1.15,2013-05-21 22:34:00,
2013-05-21 18:39:00,82.2,73.5,29.85,SW,216,0.0,0.0,75,0.00,,,0.00,Wunderground v.1.15,2013-05-21 22:39:00,
2013-05-21 18:49:00,81.7,73.4,29.85,South,191,0.0,0.0,76,0.00,,,0.00,Wunderground v.1.15,2013-05-21 22:49:00,
2013-05-21 18:54:00,81.6,73.3,29.85,South,191,0.0,0.0,76,0.00,,,0.00,Wunderground v.1.15,2013-05-21 22:54:00,
2013-05-21 19:05:00,81.1,73.6,29.84,South,191,0.0,0.0,78,0.00,,,0.00,Wunderground v.1.15,2013-05-21 23:05:00,
2013-05-21 19:14:00,80.7,73.6,29.85,SSW,206,0.0,0.0,79,0.00,,,0.00,Wunderground v.1.15,2013-05-21 23:14:00,
2013-05-21 19:24:00,80.4,73.7,29.85,SSW,206,0.0,0.0,80,0.00,,,0.00,Wunderground v.1.15,2013-05-21 23:24:00,
2013-05-21 19:29:00,80.3,73.2,29.85,SSW,194,0.0,1.0,79,0.00,,,0.00,Wunderground v.1.15,2013-05-21 23:29:00,
2013-05-21 19:39:00,80.1,73.4,29.85,SSW,197,0.0,0.0,80,0.00,,,0.00,Wunderground v.1.15,2013-05-21 23:39:00,
2013-05-21 19:44:00,79.9,73.2,29.85,SSW,197,0.0,0.0,80,0.00,,,0.00,Wunderground v.1.15,2013-05-21 23:44:00,
2013-05-21 19:54:00,79.5,72.8,29.85,South,191,0.0,1.0,80,0.00,,,0.00,Wunderground v.1.15,2013-05-21 23:54:00,
2013-05-21 19:59:00,79.2,72.9,29.85,South,191,0.0,0.0,81,0.00,,,0.00,Wunderground v.1.15,2013-05-21 23:59:00,
2013-05-21 20:04:00,79.0,72.7,29.85,South,191,0.0,0.0,81,0.00,,,0.00,Wunderground v.1.15,2013-05-22 00:04:00,
2013-05-21 20:14:00,78.7,72.7,29.85,South,191,0.0,0.0,82,0.00,,,0.00,Wunderground v.1.15,2013-05-22 00:14:00,
2013-05-21 20:19:00,78.5,72.5,29.85,South,191,0.0,0.0,82,0.00,,,0.00,Wunderground v.1.15,2013-05-22 00:19:00,
2013-05-21 20:29:00,78.0,72.4,29.85,South,191,0.0,0.0,83,0.00,,,0.00,Wunderground v.1.15,2013-05-22 00:29:00,
2013-05-21 20:34:00,77.8,72.2,29.84,South,191,0.0,0.0,83,0.00,,,0.00,Wunderground v.1.15,2013-05-22 00:34:00,
2013-05-21 20:44:00,77.4,72.2,29.84,South,191,0.0,0.0,84,0.00,,,0.00,Wunderground v.1.15,2013-05-22 00:44:00,
2013-05-21 20:54:00,77.0,71.8,29.85,ESE,118,0.0,0.0,84,0.00,,,0.00,Wunderground v.1.15,2013-05-22 00:54:00,
2013-05-21 20:59:00,76.8,71.9,29.85,ESE,118,0.0,0.0,85,0.00,,,0.00,Wunderground v.1.15,2013-05-22 00:59:00,
2013-05-21 21:04:00,76.7,71.8,29.85,ESE,118,0.0,0.0,85,0.00,,,0.00,Wunderground v.1.15,2013-05-22 01:04:00,
2013-05-21 21:14:00,76.4,71.9,29.86,ESE,118,0.0,0.0,86,0.00,,,0.00,Wunderground v.1.15,2013-05-22 01:14:00,
2013-05-21 21:19:00,76.1,71.6,29.86,ESE,118,0.0,0.0,86,0.00,,,0.00,Wunderground v.1.15,2013-05-22 01:19:00,
2013-05-21 21:29:00,75.8,71.7,29.86,ESE,118,0.0,0.0,87,0.00,,,0.00,Wunderground v.1.15,2013-05-22 01:29:00,
2013-05-21 21:34:00,75.7,71.6,29.86,ESE,118,0.0,0.0,87,0.00,,,0.00,Wunderground v.1.15,2013-05-22 01:34:00,
2013-05-21 21:44:00,75.4,71.6,29.87,ESE,118,0.0,0.0,88,0.00,,,0.00,Wunderground v.1.15,2013-05-22 01:44:00,
2013-05-21 21:54:00,75.0,71.2,29.86,ESE,118,0.0,0.0,88,0.00,,,0.00,Wunderground v.1.15,2013-05-22 01:54:00,
2013-05-21 21:59:00,74.9,71.4,29.87,ESE,118,0.0,0.0,89,0.00,,,0.00,Wunderground v.1.15,2013-05-22 01:59:00,
2013-05-21 22:05:00,74.7,71.2,29.87,ESE,118,0.0,0.0,89,0.00,,,0.00,Wunderground v.1.15,2013-05-22 02:05:00,
2013-05-21 22:14:00,74.4,70.9,29.87,ESE,118,0.0,0.0,89,0.00,,,0.00,Wunderground v.1.15,2013-05-22 02:14:00,
2013-05-21 22:19:00,74.2,71.1,29.87,ESE,118,0.0,0.0,90,0.00,,,0.00,Wunderground v.1.15,2013-05-22 02:19:00,
2013-05-21 22:29:00,73.9,70.8,29.87,ESE,118,0.0,0.0,90,0.00,,,0.00,Wunderground v.1.15,2013-05-22 02:29:00,
2013-05-21 22:34:00,73.8,71.0,29.87,ESE,118,0.0,0.0,91,0.00,,,0.00,Wunderground v.1.15,2013-05-22 02:34:00,
2013-05-21 22:44:00,73.6,70.8,29.87,ESE,118,0.0,0.0,91,0.00,,,0.00,Wunderground v.1.15,2013-05-22 02:44:00,
2013-05-21 22:49:00,73.6,70.8,29.87,ESE,118,0.0,0.0,91,0.00,,,0.00,Wunderground v.1.15,2013-05-22 02:49:00,
2013-05-21 22:59:00,73.4,70.6,29.87,ESE,118,0.0,0.0,91,0.00,,,0.00,Wunderground v.1.15,2013-05-22 02:59:00,
2013-05-21 23:04:00,73.3,70.5,29.87,ESE,118,0.0,0.0,91,0.00,,,0.00,Wunderground v.1.15,2013-05-22 03:04:00,
2013-05-21 23:14:00,72.8,70.3,29.87,ESE,118,0.0,0.0,92,0.00,,,0.00,Wunderground v.1.15,2013-05-22 03:14:00,
2013-05-21 23:19:00,72.5,70.0,29.87,ESE,118,0.0,0.0,92,0.00,,,0.00,Wunderground v.1.15,2013-05-22 03:19:00,
2013-05-21 23:24:00,72.2,70.1,29.87,ESE,118,0.0,0.0,93,0.00,,,0.00,Wunderground v.1.15,2013-05-22 03:24:00,
2013-05-21 23:34:00,71.9,70.1,29.87,ESE,118,0.0,0.0,94,0.00,,,0.00,Wunderground v.1.15,2013-05-22 03:34:00,
2013-05-21 23:39:00,71.7,69.9,29.87,ESE,118,0.0,0.0,94,0.00,,,0.00,Wunderground v.1.15,2013-05-22 03:39:00,
2013-05-21 23:49:00,71.5,70.0,29.87,ESE,118,0.0,0.0,95,0.00,,,0.00,Wunderground v.1.15,2013-05-22 03:49:00,
2013-05-21 23:59:00,71.3,69.8,29.88,ESE,118,0.0,0.0,95,0.00,,,0.00,Wunderground v.1.15,2013-05-22 03:59:00,